Time;durP1;ratioP1;P1;durP2;ratioP2;P2;SDS_P1;SDS_P2;PMS_P1;PMS_P2;Temp;Humidity;BMP_temperature;BMP_pressure;BME280_temperature;BME280_humidity;BME280_pressure;Samples;Min_cycle;Max_cycle;Signal;HPM_P1;HPM_P2
2022/04/27 00:00:29;;;;;;;9.03;7.97;;;;;;;;;;5054357;28;20421;-86
2022/04/27 00:02:58;;;;;;;8.70;6.73;;;;;;;;;;5046119;28;20461;-85
2022/04/27 00:05:25;;;;;;;8.47;7.30;;;;;;;;;;5046882;28;20402;-85
2022/04/27 00:07:51;;;;;;;9.70;7.63;;;;;;;;;;5046910;28;20420;-86
2022/04/27 00:10:21;;;;;;;7.60;6.37;;;;;;;;;;5045487;28;20411;-85
2022/04/27 00:12:47;;;;;;;9.83;6.70;;;;;;;;;;5089381;22;20507;-81
2022/04/27 00:15:13;;;;;;;9.37;8.47;;;;;;;;;;5068342;28;20548;-81
2022/04/27 00:17:39;;;;;;;7.47;6.63;;;;;;;;;;5051892;28;20422;-81
2022/04/27 00:20:07;;;;;;;12.43;7.37;;;;;;;;;;5069989;28;20437;-82
2022/04/27 00:22:33;;;;;;;8.90;7.27;;;;;;;;;;5070687;28;20401;-81
2022/04/27 00:25:03;;;;;;;10.97;8.87;;;;;;;;;;5070972;28;20413;-81
2022/04/27 00:27:30;;;;;;;9.43;7.67;;;;;;;;;;5053166;28;20422;-81
2022/04/27 00:29:56;;;;;;;11.57;8.67;;;;;;;;;;5070842;28;20417;-81
2022/04/27 00:32:22;;;;;;;13.87;7.50;;;;;;;;;;5070137;28;20460;-81
2022/04/27 00:34:48;;;;;;;8.73;6.90;;;;;;;;;;5070506;28;20449;-81
2022/04/27 00:37:15;;;;;;;10.77;7.40;;;;;;;;;;5070455;28;20406;-81
2022/04/27 00:39:41;;;;;;;8.33;7.43;;;;;;;;;;5053353;28;20437;-81
2022/04/27 00:42:17;;;;;;;12.63;7.83;;;;;;;;;;5069974;28;20398;-81
2022/04/27 00:44:46;;;;;;;9.63;7.53;;;;;;;;;;5070510;28;20440;-80
2022/04/27 00:47:13;;;;;;;10.10;8.00;;;;;;;;;;5070591;28;20406;-81
2022/04/27 00:49:43;;;;;;;11.90;8.93;;;;;;;;;;5071048;28;20406;-80
2022/04/27 00:52:12;;;;;;;10.40;7.70;;;;;;;;;;5071354;28;20402;-80
2022/04/27 00:54:39;;;;;;;11.90;7.67;;;;;;;;;;5070874;28;20513;-81
2022/04/27 00:57:05;;;;;;;10.33;7.63;;;;;;;;;;5070360;28;20427;-81
2022/04/27 00:59:31;;;;;;;10.93;8.13;;;;;;;;;;5070425;28;20401;-81
2022/04/27 01:01:57;;;;;;;10.27;7.73;;;;;;;;;;5070575;28;20436;-81
2022/04/27 01:04:24;;;;;;;12.27;7.70;;;;;;;;;;5070499;28;20422;-81
2022/04/27 01:06:50;;;;;;;10.70;7.47;;;;;;;;;;5069505;28;20402;-81
2022/04/27 01:09:18;;;;;;;12.00;8.33;;;;;;;;;;5061324;28;20990;-81
2022/04/27 01:11:44;;;;;;;10.20;7.50;;;;;;;;;;5049492;28;20505;-80
2022/04/27 01:14:10;;;;;;;10.27;7.53;;;;;;;;;;5048834;28;20438;-80
2022/04/27 01:16:37;;;;;;;9.63;8.27;;;;;;;;;;5049043;28;20403;-81
2022/04/27 01:19:05;;;;;;;9.63;7.50;;;;;;;;;;5048259;28;20425;-80
2022/04/27 01:21:31;;;;;;;9.73;7.20;;;;;;;;;;5049681;28;20410;-81
2022/04/27 01:23:57;;;;;;;9.53;8.30;;;;;;;;;;5048290;28;20486;-81
2022/04/27 01:26:23;;;;;;;10.03;7.97;;;;;;;;;;5051981;28;20421;-80
2022/04/27 01:28:50;;;;;;;7.80;6.57;;;;;;;;;;5054093;28;20383;-81
2022/04/27 01:31:16;;;;;;;7.90;6.67;;;;;;;;;;5048832;28;20406;-81
2022/04/27 01:33:42;;;;;;;9.93;6.87;;;;;;;;;;5049482;28;20476;-81
2022/04/27 01:36:09;;;;;;;9.70;7.87;;;;;;;;;;5049687;28;20442;-81
2022/04/27 01:38:35;;;;;;;11.40;7.53;;;;;;;;;;5049217;28;20402;-81
2022/04/27 01:41:02;;;;;;;9.60;8.60;;;;;;;;;;5049691;28;20418;-81
2022/04/27 01:43:29;;;;;;;9.73;7.40;;;;;;;;;;5049347;28;20418;-81
2022/04/27 01:45:55;;;;;;;10.50;7.97;;;;;;;;;;5049301;28;20399;-81
2022/04/27 01:48:22;;;;;;;11.50;8.60;;;;;;;;;;5049772;28;20422;-81
2022/04/27 01:50:48;;;;;;;8.07;6.97;;;;;;;;;;5048012;28;20391;-81
2022/04/27 01:55:59;;;;;;;12.73;8.17;;;;;;;;;;5049744;28;20529;-81
2022/04/27 01:58:25;;;;;;;10.50;8.77;;;;;;;;;;5049703;28;20399;-81
2022/04/27 02:00:52;;;;;;;11.87;9.70;;;;;;;;;;5048727;28;20417;-81
2022/04/27 02:03:19;;;;;;;17.73;9.77;;;;;;;;;;5048721;28;20414;-81
2022/04/27 02:05:45;;;;;;;12.17;8.80;;;;;;;;;;5048713;28;20516;-81
2022/04/27 02:08:12;;;;;;;12.77;9.83;;;;;;;;;;5049273;28;20427;-81
2022/04/27 02:10:38;;;;;;;9.13;7.90;;;;;;;;;;5049420;28;20406;-81
2022/04/27 02:13:07;;;;;;;10.67;8.67;;;;;;;;;;5046918;28;20465;-81
2022/04/27 02:15:34;;;;;;;14.90;8.50;;;;;;;;;;5047756;28;20454;-81
2022/04/27 02:18:00;;;;;;;9.57;7.80;;;;;;;;;;5049586;28;20402;-81
2022/04/27 02:20:27;;;;;;;13.40;9.67;;;;;;;;;;5047846;28;20409;-81
2022/04/27 02:22:53;;;;;;;9.90;8.90;;;;;;;;;;5049564;28;20426;-81
2022/04/27 02:25:20;;;;;;;10.37;8.70;;;;;;;;;;5048559;28;20433;-83
2022/04/27 02:27:47;;;;;;;17.13;9.93;;;;;;;;;;5049199;28;20409;-83
2022/04/27 02:30:13;;;;;;;14.30;10.30;;;;;;;;;;5048612;28;20428;-81
2022/04/27 02:32:40;;;;;;;10.63;8.67;;;;;;;;;;5048247;28;20406;-81
2022/04/27 02:35:06;;;;;;;10.07;8.37;;;;;;;;;;5049238;28;20450;-80
2022/04/27 02:37:33;;;;;;;12.30;9.60;;;;;;;;;;5048763;28;20406;-80
2022/04/27 02:39:59;;;;;;;12.50;9.43;;;;;;;;;;5048516;28;20454;-82
2022/04/27 02:42:26;;;;;;;10.90;8.97;;;;;;;;;;5047413;28;20438;-81
2022/04/27 02:44:52;;;;;;;12.67;8.90;;;;;;;;;;5050430;28;20410;-81
2022/04/27 02:47:18;;;;;;;11.20;9.73;;;;;;;;;;5051268;28;20434;-81
2022/04/27 02:52:30;;;;;;;10.87;9.10;;;;;;;;;;5055375;28;20385;-79
2022/04/27 02:54:56;;;;;;;10.30;8.73;;;;;;;;;;5053576;28;20484;-81
2022/04/27 02:57:22;;;;;;;9.87;8.67;;;;;;;;;;5052121;28;20413;-81
2022/04/27 02:59:48;;;;;;;14.30;10.63;;;;;;;;;;5050722;28;20786;-81
2022/04/27 03:02:15;;;;;;;11.37;9.40;;;;;;;;;;5034759;28;20910;-81
2022/04/27 03:04:41;;;;;;;11.60;10.00;;;;;;;;;;5052728;28;20442;-81
2022/04/27 03:07:07;;;;;;;11.77;10.00;;;;;;;;;;5052330;28;20402;-81
2022/04/27 03:09:34;;;;;;;14.00;10.17;;;;;;;;;;5051634;28;20479;-81
2022/04/27 03:12:00;;;;;;;12.33;10.80;;;;;;;;;;5051288;28;20485;-81
2022/04/27 03:14:28;;;;;;;12.10;10.23;;;;;;;;;;5052041;28;20561;-81
2022/04/27 03:16:55;;;;;;;11.60;10.20;;;;;;;;;;5051471;28;20415;-81
2022/04/27 03:19:21;;;;;;;12.27;9.83;;;;;;;;;;5052219;28;20418;-81
2022/04/27 03:21:47;;;;;;;11.27;9.30;;;;;;;;;;5051488;28;20432;-81
2022/04/27 03:24:13;;;;;;;12.40;9.70;;;;;;;;;;5052206;28;20426;-81
2022/04/27 03:26:39;;;;;;;17.87;11.27;;;;;;;;;;5052788;28;20436;-81
2022/04/27 03:29:05;;;;;;;13.50;10.97;;;;;;;;;;5051238;28;20398;-81
2022/04/27 03:31:32;;;;;;;14.73;10.90;;;;;;;;;;5052321;28;20409;-81
2022/04/27 03:33:58;;;;;;;12.33;10.20;;;;;;;;;;5057023;28;20453;-81
2022/04/27 03:36:25;;;;;;;14.70;10.97;;;;;;;;;;5071210;28;20428;-80
2022/04/27 03:38:51;;;;;;;11.30;8.93;;;;;;;;;;5070420;28;20419;-81
2022/04/27 03:41:20;;;;;;;11.40;10.17;;;;;;;;;;5070049;28;20409;-81
2022/04/27 03:43:46;;;;;;;14.10;11.60;;;;;;;;;;5070785;28;20421;-81
2022/04/27 03:46:12;;;;;;;13.07;10.73;;;;;;;;;;5071767;28;20398;-81
2022/04/27 03:48:39;;;;;;;13.47;11.53;;;;;;;;;;5071395;28;20394;-80
2022/04/27 03:51:05;;;;;;;16.97;10.77;;;;;;;;;;5070270;28;20531;-81
2022/04/27 03:53:31;;;;;;;14.40;11.63;;;;;;;;;;5071008;28;20420;-81
2022/04/27 03:55:57;;;;;;;12.57;10.10;;;;;;;;;;5070038;28;20449;-81
2022/04/27 03:58:23;;;;;;;13.73;10.50;;;;;;;;;;5070837;28;20412;-81
2022/04/27 04:00:49;;;;;;;13.23;11.90;;;;;;;;;;5070778;28;20398;-81
2022/04/27 04:03:15;;;;;;;14.77;11.47;;;;;;;;;;5070817;28;20476;-83
2022/04/27 04:05:42;;;;;;;17.93;12.27;;;;;;;;;;5053200;28;20948;-81
2022/04/27 04:08:08;;;;;;;15.60;11.60;;;;;;;;;;5070471;28;20401;-81
2022/04/27 04:10:34;;;;;;;13.93;11.40;;;;;;;;;;5069990;28;20409;-80
2022/04/27 04:13:00;;;;;;;15.30;12.27;;;;;;;;;;5068762;28;20453;-80
2022/04/27 04:15:27;;;;;;;17.13;13.23;;;;;;;;;;5070618;28;20583;-81
2022/04/27 04:17:54;;;;;;;16.93;12.60;;;;;;;;;;5070486;28;20424;-80
2022/04/27 04:20:20;;;;;;;21.60;14.50;;;;;;;;;;5070349;28;20453;-81
2022/04/27 04:22:48;;;;;;;15.40;12.43;;;;;;;;;;5035984;28;20552;-81
2022/04/27 04:30:45;;;;;;;18.47;13.37;;;;;;;;;;5070342;28;20392;-81
2022/04/27 04:33:11;;;;;;;16.50;12.23;;;;;;;;;;5070472;28;20521;-81
2022/04/27 04:35:37;;;;;;;18.20;14.30;;;;;;;;;;5069619;28;20467;-81
2022/04/27 04:38:04;;;;;;;14.20;11.97;;;;;;;;;;5070276;28;20394;-80
2022/04/27 04:40:30;;;;;;;16.67;13.00;;;;;;;;;;5070370;28;20432;-81
2022/04/27 04:42:57;;;;;;;15.57;12.53;;;;;;;;;;5070145;28;20505;-81
2022/04/27 04:45:26;;;;;;;17.63;13.40;;;;;;;;;;5070644;28;20492;-81
2022/04/27 04:47:52;;;;;;;15.17;12.43;;;;;;;;;;5052014;28;20441;-81
2022/04/27 04:50:18;;;;;;;14.30;11.87;;;;;;;;;;5073644;28;20398;-80
2022/04/27 04:52:46;;;;;;;24.50;16.43;;;;;;;;;;5074937;28;20459;-81
2022/04/27 04:55:12;;;;;;;20.10;13.30;;;;;;;;;;5069777;28;20457;-81
2022/04/27 04:57:38;;;;;;;17.60;12.13;;;;;;;;;;5048504;28;20429;-81
2022/04/27 05:00:05;;;;;;;15.60;12.53;;;;;;;;;;5042940;28;20478;-82
2022/04/27 05:02:31;;;;;;;17.43;13.37;;;;;;;;;;5049044;28;20419;-82
2022/04/27 05:04:58;;;;;;;17.00;13.60;;;;;;;;;;5050130;28;20425;-82
2022/04/27 05:07:24;;;;;;;17.80;13.43;;;;;;;;;;5051727;28;20172;-82
2022/04/27 05:09:50;;;;;;;21.00;13.40;;;;;;;;;;5049509;28;20427;-83
2022/04/27 05:12:16;;;;;;;22.07;13.00;;;;;;;;;;5041761;28;20421;-81
2022/04/27 05:14:42;;;;;;;15.47;12.97;;;;;;;;;;5040118;28;20550;-84
2022/04/27 05:17:08;;;;;;;17.13;11.93;;;;;;;;;;5041632;28;20418;-82
2022/04/27 05:19:35;;;;;;;15.57;12.20;;;;;;;;;;5040859;28;20418;-82
2022/04/27 05:22:01;;;;;;;14.70;11.60;;;;;;;;;;5038769;28;20425;-82
2022/04/27 05:24:27;;;;;;;16.10;12.38;;;;;;;;;;5035718;28;20405;-82
2022/04/27 05:26:53;;;;;;;15.27;12.53;;;;;;;;;;5024130;28;20421;-82
2022/04/27 05:32:05;;;;;;;15.13;11.87;;;;;;;;;;5042467;28;20486;-82
2022/04/27 05:34:33;;;;;;;14.27;12.30;;;;;;;;;;5041424;28;20450;-84
2022/04/27 05:37:00;;;;;;;18.00;12.10;;;;;;;;;;5040698;28;20399;-83
2022/04/27 05:39:26;;;;;;;17.53;13.33;;;;;;;;;;5041307;28;20482;-83
2022/04/27 05:41:53;;;;;;;16.20;11.83;;;;;;;;;;5041982;28;20445;-82
2022/04/27 05:44:23;;;;;;;14.30;12.30;;;;;;;;;;5039574;28;20841;-83
2022/04/27 05:46:53;;;;;;;17.07;12.37;;;;;;;;;;5035735;28;20418;-82
2022/04/27 05:49:19;;;;;;;15.97;12.10;;;;;;;;;;5041149;28;20413;-82
2022/04/27 05:51:46;;;;;;;17.30;13.20;;;;;;;;;;5039975;28;20429;-83
2022/04/27 05:54:14;;;;;;;16.23;13.47;;;;;;;;;;5040864;28;20453;-82
2022/04/27 05:56:40;;;;;;;16.57;13.27;;;;;;;;;;5039270;28;20422;-82
2022/04/27 05:59:06;;;;;;;19.27;14.70;;;;;;;;;;5023490;28;20821;-83
2022/04/27 06:01:33;;;;;;;18.73;13.70;;;;;;;;;;5043203;28;20194;-82
2022/04/27 06:03:59;;;;;;;17.43;12.80;;;;;;;;;;5043438;28;20442;-82
2022/04/27 06:06:25;;;;;;;15.07;12.50;;;;;;;;;;5026726;28;20411;-80
2022/04/27 06:08:51;;;;;;;20.03;13.43;;;;;;;;;;5042417;28;20438;-83
2022/04/27 06:11:19;;;;;;;17.10;13.43;;;;;;;;;;5046653;28;20403;-82
2022/04/27 06:13:45;;;;;;;17.87;12.73;;;;;;;;;;5081349;22;21007;-85
2022/04/27 06:16:11;;;;;;;23.88;13.52;;;;;;;;;;5069814;28;20509;-86
2022/04/27 06:18:40;;;;;;;19.83;14.80;;;;;;;;;;5081715;28;20185;-87
2022/04/27 06:21:06;;;;;;;16.70;13.17;;;;;;;;;;5085222;28;20419;-87
2022/04/27 06:23:33;;;;;;;16.77;13.83;;;;;;;;;;5082507;28;20429;-86
2022/04/27 06:25:59;;;;;;;16.53;12.97;;;;;;;;;;5080428;28;20488;-86
2022/04/27 06:28:25;;;;;;;18.40;14.10;;;;;;;;;;5079994;28;20390;-85
2022/04/27 06:30:51;;;;;;;13.60;12.13;;;;;;;;;;5074915;28;20469;-87
2022/04/27 06:33:18;;;;;;;15.13;9.90;;;;;;;;;;5056474;28;20448;-87
2022/04/27 06:35:45;;;;;;;15.60;12.73;;;;;;;;;;5054978;28;20440;-86
2022/04/27 06:38:11;;;;;;;19.73;13.37;;;;;;;;;;5061735;28;20187;-86
2022/04/27 06:40:37;;;;;;;14.80;12.03;;;;;;;;;;5069102;28;20413;-86
2022/04/27 06:43:03;;;;;;;15.33;12.17;;;;;;;;;;5067258;28;20409;-86
2022/04/27 06:45:29;;;;;;;15.47;12.60;;;;;;;;;;5066406;28;20444;-86
2022/04/27 06:47:55;;;;;;;19.10;11.30;;;;;;;;;;5065862;28;20453;-87
2022/04/27 06:50:21;;;;;;;15.00;11.13;;;;;;;;;;5064669;28;20394;-85
2022/04/27 06:52:48;;;;;;;12.80;10.27;;;;;;;;;;5064205;28;20415;-86
2022/04/27 06:55:14;;;;;;;12.37;9.97;;;;;;;;;;5083808;28;20448;-84
2022/04/27 06:57:40;;;;;;;14.23;10.70;;;;;;;;;;5093081;28;20525;-86
2022/04/27 07:00:10;;;;;;;14.95;11.82;;;;;;;;;;5082656;28;20411;-84
2022/04/27 07:02:37;;;;;;;13.75;10.27;;;;;;;;;;5051216;28;20424;-87
2022/04/27 07:05:04;;;;;;;11.70;10.30;;;;;;;;;;5077009;28;20190;-86
2022/04/27 07:07:30;;;;;;;12.10;9.97;;;;;;;;;;5086709;28;20492;-87
2022/04/27 07:09:57;;;;;;;14.10;10.10;;;;;;;;;;5069987;28;20505;-86
2022/04/27 07:12:23;;;;;;;12.25;10.35;;;;;;;;;;5067818;28;20504;-85
2022/04/27 07:14:51;;;;;;;10.87;9.53;;;;;;;;;;5059928;28;20218;-85
2022/04/27 07:17:17;;;;;;;10.43;9.37;;;;;;;;;;5038633;28;20423;-85
2022/04/27 07:19:43;;;;;;;10.80;8.60;;;;;;;;;;5056906;28;20417;-86
2022/04/27 07:22:10;;;;;;;11.07;9.77;;;;;;;;;;5062650;28;20520;-85
2022/04/27 07:24:37;;;;;;;10.67;9.00;;;;;;;;;;5074742;28;20433;-85
2022/04/27 07:27:03;;;;;;;11.37;9.50;;;;;;;;;;5061528;28;20421;-86
2022/04/27 07:29:30;;;;;;;10.30;9.17;;;;;;;;;;5061406;28;20425;-85
2022/04/27 07:31:56;;;;;;;14.63;9.87;;;;;;;;;;5062657;28;20456;-86
2022/04/27 07:34:22;;;;;;;10.43;9.00;;;;;;;;;;5079744;28;20816;-86
2022/04/27 07:36:48;;;;;;;11.83;9.77;;;;;;;;;;5082701;28;20436;-84
2022/04/27 07:39:15;;;;;;;16.50;9.30;;;;;;;;;;5063763;28;20494;-85
2022/04/27 07:41:41;;;;;;;10.33;9.17;;;;;;;;;;5053467;28;20413;-86
2022/04/27 07:44:07;;;;;;;12.20;10.10;;;;;;;;;;5073801;28;20508;-86
2022/04/27 07:46:33;;;;;;;12.57;8.63;;;;;;;;;;5071924;28;20416;-86
2022/04/27 07:48:59;;;;;;;12.00;9.03;;;;;;;;;;5075342;28;20443;-86
2022/04/27 07:51:25;;;;;;;9.63;8.63;;;;;;;;;;5080371;28;20445;-86
2022/04/27 07:53:52;;;;;;;10.87;8.70;;;;;;;;;;5074743;28;20437;-86
2022/04/27 07:56:18;;;;;;;11.03;8.80;;;;;;;;;;5056396;28;20444;-86
2022/04/27 07:58:44;;;;;;;9.80;8.67;;;;;;;;;;5074100;28;20824;-86
2022/04/27 08:01:10;;;;;;;9.70;8.13;;;;;;;;;;5068005;28;20418;-86
2022/04/27 08:03:36;;;;;;;9.13;7.90;;;;;;;;;;5081409;28;20433;-86
2022/04/27 08:06:03;;;;;;;9.57;8.20;;;;;;;;;;5084114;28;20420;-86
2022/04/27 08:08:29;;;;;;;10.70;9.07;;;;;;;;;;5072247;28;20417;-86
2022/04/27 08:10:56;;;;;;;9.30;8.00;;;;;;;;;;5066628;28;20417;-86
2022/04/27 08:13:22;;;;;;;11.37;8.30;;;;;;;;;;5064230;28;20868;-86
2022/04/27 08:15:48;;;;;;;7.37;6.60;;;;;;;;;;5063939;28;20507;-86
2022/04/27 08:18:14;;;;;;;8.77;7.60;;;;;;;;;;5065158;28;20831;-86
2022/04/27 08:23:34;;;;;;;8.53;7.60;;;;;;;;;;5084045;28;20423;-86
2022/04/27 08:26:04;;;;;;;8.27;7.30;;;;;;;;;;5064661;28;20397;-87
2022/04/27 08:28:30;;;;;;;7.33;5.93;;;;;;;;;;5069257;28;20474;-86
2022/04/27 08:30:57;;;;;;;7.30;6.40;;;;;;;;;;5064602;28;20445;-86
2022/04/27 08:33:23;;;;;;;8.77;6.30;;;;;;;;;;5049562;28;20432;-87
2022/04/27 08:35:49;;;;;;;8.77;7.83;;;;;;;;;;5067954;28;20458;-87
2022/04/27 08:38:16;;;;;;;7.87;5.90;;;;;;;;;;5083714;28;20438;-86
2022/04/27 08:40:43;;;;;;;9.23;7.30;;;;;;;;;;5066812;28;20447;-86
2022/04/27 08:43:12;;;;;;;6.53;4.87;;;;;;;;;;5067033;28;20414;-86
2022/04/27 08:45:41;;;;;;;7.33;6.20;;;;;;;;;;5079106;28;20429;-85
2022/04/27 08:48:07;;;;;;;7.97;6.30;;;;;;;;;;5083668;28;20420;-86
2022/04/27 08:50:33;;;;;;;5.40;4.80;;;;;;;;;;5081721;28;20771;-86
2022/04/27 08:52:59;;;;;;;7.77;5.80;;;;;;;;;;5075486;28;20473;-84
2022/04/27 08:55:27;;;;;;;5.37;4.80;;;;;;;;;;5085952;28;20445;-86
2022/04/27 08:57:54;;;;;;;7.43;5.60;;;;;;;;;;5066163;28;20406;-86
2022/04/27 09:00:22;;;;;;;6.53;5.50;;;;;;;;;;5077165;28;20428;-86
2022/04/27 09:02:52;;;;;;;7.65;5.93;;;;;;;;;;5081620;28;20344;-85
2022/04/27 09:05:26;;;;;;;6.72;6.03;;;;;;;;;;5081774;28;20419;-85
2022/04/27 09:07:57;;;;;;;6.70;5.47;;;;;;;;;;5081632;28;20193;-85
2022/04/27 09:10:24;;;;;;;7.70;5.80;;;;;;;;;;5077225;28;20477;-85
2022/04/27 09:12:56;;;;;;;7.00;5.70;;;;;;;;;;5074632;28;20452;-84
2022/04/27 09:15:26;;;;;;;7.63;5.83;;;;;;;;;;5069127;28;20495;-85
2022/04/27 09:20:56;;;;;;;7.33;6.13;;;;;;;;;;5065418;28;20420;-85
2022/04/27 09:23:23;;;;;;;6.73;5.43;;;;;;;;;;5067982;28;20439;-84
2022/04/27 09:25:51;;;;;;;7.13;5.50;;;;;;;;;;5072592;28;20444;-84
2022/04/27 09:28:18;;;;;;;5.17;3.93;;;;;;;;;;5052187;28;20417;-84
2022/04/27 09:30:44;;;;;;;4.97;4.40;;;;;;;;;;5091622;28;20440;-84
2022/04/27 09:33:11;;;;;;;4.90;4.00;;;;;;;;;;5080467;28;20441;-84
2022/04/27 09:35:37;;;;;;;4.80;3.80;;;;;;;;;;5066900;28;20441;-86
2022/04/27 09:38:17;;;;;;;5.17;3.80;;;;;;;;;;5070260;28;20430;-86
2022/04/27 09:40:48;;;;;;;5.33;4.80;;;;;;;;;;5064169;28;20427;-86
2022/04/27 09:43:15;;;;;;;6.33;5.53;;;;;;;;;;5083036;28;20463;-86
2022/04/27 09:45:42;;;;;;;6.60;5.90;;;;;;;;;;5084297;28;20404;-85
2022/04/27 09:48:11;;;;;;;6.00;5.40;;;;;;;;;;5054604;28;20409;-84
2022/04/27 09:50:58;;;;;;;12.73;7.67;;;;;;;;;;5077597;28;20393;-84
2022/04/27 09:53:25;;;;;;;7.20;6.47;;;;;;;;;;5085225;28;20894;-86
2022/04/27 09:55:52;;;;;;;7.53;6.77;;;;;;;;;;5080613;28;20297;-85
2022/04/27 09:58:19;;;;;;;7.70;6.40;;;;;;;;;;5049735;28;20444;-85
2022/04/27 10:00:45;;;;;;;7.28;6.00;;;;;;;;;;5064597;28;20780;-85
2022/04/27 10:03:16;;;;;;;9.00;6.77;;;;;;;;;;5062921;28;20252;-85
2022/04/27 10:05:42;;;;;;;6.93;5.77;;;;;;;;;;5062157;28;20473;-85
2022/04/27 10:08:09;;;;;;;8.13;7.10;;;;;;;;;;5064946;28;20422;-86
2022/04/27 10:10:37;;;;;;;8.03;6.63;;;;;;;;;;5069766;28;20488;-85
2022/04/27 10:13:03;;;;;;;7.50;6.77;;;;;;;;;;5079599;28;20452;-86
2022/04/27 10:15:31;;;;;;;7.60;6.67;;;;;;;;;;5076894;28;20442;-86
2022/04/27 10:17:57;;;;;;;7.77;6.80;;;;;;;;;;5063810;28;20432;-85
2022/04/27 10:20:27;;;;;;;7.70;6.70;;;;;;;;;;5045637;28;20420;-84
2022/04/27 10:22:54;;;;;;;7.93;7.10;;;;;;;;;;5065879;28;20456;-84
2022/04/27 10:25:20;;;;;;;7.23;5.90;;;;;;;;;;5062580;28;20423;-84
2022/04/27 10:27:46;;;;;;;10.50;7.10;;;;;;;;;;5079359;28;20826;-85
2022/04/27 10:30:13;;;;;;;7.87;6.20;;;;;;;;;;5080903;28;20404;-85
2022/04/27 10:32:43;;;;;;;7.53;6.60;;;;;;;;;;5080829;28;20404;-84
2022/04/27 10:35:12;;;;;;;7.50;6.63;;;;;;;;;;5047019;28;20453;-85
2022/04/27 10:38:05;;;;;;;7.93;6.90;;;;;;;;;;5081565;28;20912;-85
2022/04/27 10:40:40;;;;;;;8.40;7.13;;;;;;;;;;5078381;28;20409;-85
2022/04/27 10:43:15;;;;;;;9.10;7.27;;;;;;;;;;5082113;28;20476;-87
2022/04/27 10:45:42;;;;;;;8.43;7.27;;;;;;;;;;5081423;28;20473;-85
2022/04/27 10:48:15;;;;;;;8.73;7.70;;;;;;;;;;5076366;28;20416;-85
2022/04/27 10:50:53;;;;;;;10.53;7.43;;;;;;;;;;5062124;28;20417;-85
2022/04/27 10:53:23;;;;;;;8.50;6.77;;;;;;;;;;5061435;28;20429;-86
2022/04/27 10:55:54;;;;;;;8.00;6.67;;;;;;;;;;5063978;28;20801;-86
2022/04/27 10:58:20;;;;;;;7.17;6.30;;;;;;;;;;5070682;28;20497;-86
2022/04/27 11:00:58;;;;;;;7.15;5.30;;;;;;;;;;5046155;28;20770;-87
2022/04/27 11:03:27;;;;;;;6.45;5.72;;;;;;;;;;5063487;28;20427;-86
2022/04/27 11:05:57;;;;;;;5.87;4.70;;;;;;;;;;5082315;28;20171;-84
2022/04/27 11:08:43;;;;;;;6.50;5.30;;;;;;;;;;5046262;28;20408;-87
2022/04/27 11:11:09;;;;;;;8.40;6.20;;;;;;;;;;5047995;28;20413;-87
2022/04/27 11:13:36;;;;;;;6.00;5.40;;;;;;;;;;5065824;28;20459;-87
2022/04/27 11:16:12;;;;;;;6.60;5.90;;;;;;;;;;5076921;28;20452;-88
2022/04/27 11:18:53;;;;;;;8.30;6.38;;;;;;;;;;5061434;28;20439;-87
2022/04/27 11:21:19;;;;;;;9.67;7.87;;;;;;;;;;5078077;28;20155;-86
2022/04/27 11:23:45;;;;;;;9.63;8.10;;;;;;;;;;5082125;28;20421;-86
2022/04/27 11:26:13;;;;;;;9.50;8.27;;;;;;;;;;5080735;28;20410;-87
2022/04/27 11:28:40;;;;;;;8.80;7.17;;;;;;;;;;5061134;28;20406;-88
2022/04/27 11:31:06;;;;;;;9.40;8.40;;;;;;;;;;5070089;28;20431;-87
2022/04/27 11:33:36;;;;;;;8.93;7.80;;;;;;;;;;5052339;28;20503;-88
2022/04/27 11:36:02;;;;;;;8.73;7.20;;;;;;;;;;5066857;28;20517;-86
2022/04/27 11:38:35;;;;;;;9.52;8.13;;;;;;;;;;5063482;28;20422;-87
2022/04/27 11:41:02;;;;;;;9.07;7.63;;;;;;;;;;5067797;28;20175;-87
2022/04/27 11:43:29;;;;;;;9.40;7.73;;;;;;;;;;5064558;28;20441;-86
2022/04/27 11:45:56;;;;;;;9.63;7.43;;;;;;;;;;5045759;28;20734;-85
2022/04/27 11:48:22;;;;;;;8.70;6.67;;;;;;;;;;5063140;28;20401;-85
2022/04/27 11:50:48;;;;;;;9.97;8.20;;;;;;;;;;5076570;28;20966;-84
2022/04/27 11:53:15;;;;;;;9.53;8.40;;;;;;;;;;5058794;28;20450;-85
2022/04/27 11:55:44;;;;;;;10.43;8.50;;;;;;;;;;5077397;28;20904;-85
2022/04/27 11:58:20;;;;;;;9.70;8.17;;;;;;;;;;5076828;28;20436;-85
2022/04/27 12:00:47;;;;;;;14.20;8.70;;;;;;;;;;5077151;28;20412;-85
2022/04/27 12:03:13;;;;;;;9.80;7.90;;;;;;;;;;5079027;28;20518;-86
2022/04/27 12:05:39;;;;;;;12.10;9.87;;;;;;;;;;5062033;28;20422;-86
2022/04/27 12:08:09;;;;;;;10.10;8.57;;;;;;;;;;5063523;28;20430;-85
2022/04/27 12:10:42;;;;;;;10.57;8.10;;;;;;;;;;5069948;28;20423;-84
2022/04/27 12:13:09;;;;;;;10.60;8.07;;;;;;;;;;5081971;28;20440;-86
2022/04/27 12:15:36;;;;;;;8.63;7.70;;;;;;;;;;5065458;28;20453;-85
2022/04/27 12:18:03;;;;;;;10.53;7.53;;;;;;;;;;5084821;28;20413;-84
2022/04/27 12:20:29;;;;;;;11.73;6.77;;;;;;;;;;5055618;28;20418;-84
2022/04/27 12:23:08;;;;;;;7.80;6.63;;;;;;;;;;5071080;28;20404;-85
2022/04/27 12:25:35;;;;;;;7.50;6.20;;;;;;;;;;5086734;28;20412;-84
2022/04/27 12:28:02;;;;;;;7.77;5.77;;;;;;;;;;5070331;28;20417;-84
2022/04/27 12:30:28;;;;;;;7.93;5.80;;;;;;;;;;5055972;28;20452;-84
2022/04/27 12:32:54;;;;;;;7.87;5.63;;;;;;;;;;5077357;28;20471;-85
2022/04/27 12:38:12;;;;;;;7.00;5.30;;;;;;;;;;5075983;28;20417;-86
2022/04/27 12:40:40;;;;;;;6.50;4.13;;;;;;;;;;5064972;28;20422;-86
2022/04/27 12:43:07;;;;;;;7.53;5.47;;;;;;;;;;5082751;28;20436;-85
2022/04/27 12:45:34;;;;;;;7.13;4.93;;;;;;;;;;5078157;28;20444;-86
2022/04/27 12:48:01;;;;;;;5.50;4.63;;;;;;;;;;5055247;28;20422;-86
2022/04/27 12:50:27;;;;;;;5.97;5.20;;;;;;;;;;5066846;28;20477;-87
2022/04/27 12:53:06;;;;;;;9.50;3.97;;;;;;;;;;5066160;28;20416;-85
2022/04/27 12:55:32;;;;;;;6.27;3.57;;;;;;;;;;5064491;28;20441;-86
2022/04/27 12:58:01;;;;;;;4.93;4.40;;;;;;;;;;5064962;28;20402;-86
2022/04/27 13:00:41;;;;;;;4.97;4.47;;;;;;;;;;5046499;28;20417;-87
2022/04/27 13:03:10;;;;;;;5.83;5.23;;;;;;;;;;5065414;28;20404;-87
2022/04/27 13:05:37;;;;;;;4.90;4.40;;;;;;;;;;5087102;22;20492;-83
2022/04/27 13:08:04;;;;;;;4.60;4.20;;;;;;;;;;5048526;28;20428;-82
2022/04/27 13:13:17;;;;;;;5.10;4.40;;;;;;;;;;5065064;28;20182;-83
2022/04/27 13:15:45;;;;;;;6.90;5.50;;;;;;;;;;5058026;28;20429;-82
2022/04/27 13:18:11;;;;;;;6.23;5.63;;;;;;;;;;5047887;28;20180;-82
2022/04/27 13:20:38;;;;;;;5.10;4.43;;;;;;;;;;5047319;28;20390;-82
2022/04/27 13:23:04;;;;;;;5.93;5.33;;;;;;;;;;5046069;28;20422;-82
2022/04/27 13:25:30;;;;;;;5.73;5.13;;;;;;;;;;5045975;28;20446;-82
2022/04/27 13:27:56;;;;;;;4.77;4.27;;;;;;;;;;5047188;28;20414;-82
2022/04/27 13:30:22;;;;;;;3.40;2.93;;;;;;;;;;5047095;28;20418;-82
2022/04/27 13:32:49;;;;;;;4.87;3.37;;;;;;;;;;5047391;28;20430;-82
2022/04/27 13:35:15;;;;;;;4.30;3.90;;;;;;;;;;5046590;28;21025;-82
2022/04/27 13:37:41;;;;;;;5.27;4.40;;;;;;;;;;5046313;28;20526;-82
2022/04/27 13:40:07;;;;;;;4.30;3.90;;;;;;;;;;5046460;28;20406;-82
2022/04/27 13:42:33;;;;;;;4.03;3.63;;;;;;;;;;5048249;28;20406;-82
2022/04/27 13:45:00;;;;;;;4.77;4.27;;;;;;;;;;5046692;28;20521;-81
2022/04/27 13:47:26;;;;;;;4.50;4.10;;;;;;;;;;5047728;28;20414;-82
2022/04/27 13:49:52;;;;;;;4.63;4.10;;;;;;;;;;5051583;28;20426;-81
2022/04/27 13:52:19;;;;;;;5.43;4.70;;;;;;;;;;5048676;28;20418;-80
2022/04/27 13:54:45;;;;;;;6.80;5.30;;;;;;;;;;5046546;28;20803;-82
2022/04/27 13:57:11;;;;;;;5.30;4.80;;;;;;;;;;5044795;28;20487;-82
2022/04/27 13:59:37;;;;;;;5.30;3.83;;;;;;;;;;5043120;28;20409;-82
2022/04/27 14:02:05;;;;;;;5.10;4.60;;;;;;;;;;5043317;28;20690;-82
2022/04/27 14:04:31;;;;;;;4.57;4.17;;;;;;;;;;5041286;28;20771;-82
2022/04/27 14:06:57;;;;;;;4.73;4.23;;;;;;;;;;5042717;28;20979;-82
2022/04/27 14:09:23;;;;;;;4.97;4.40;;;;;;;;;;5041092;28;20403;-81
2022/04/27 14:14:36;;;;;;;4.80;4.30;;;;;;;;;;5039921;28;20378;-82
2022/04/27 14:19:47;;;;;;;3.90;3.50;;;;;;;;;;5039832;28;20409;-82
2022/04/27 14:22:13;;;;;;;4.10;3.20;;;;;;;;;;5022068;28;20499;-82
2022/04/27 14:24:39;;;;;;;4.70;3.50;;;;;;;;;;5022982;28;20486;-81
2022/04/27 14:27:06;;;;;;;3.80;3.30;;;;;;;;;;5039978;28;20442;-80
2022/04/27 14:29:32;;;;;;;3.90;3.37;;;;;;;;;;5040249;28;20505;-81
2022/04/27 14:32:01;;;;;;;5.20;3.53;;;;;;;;;;5021390;28;20422;-82
2022/04/27 14:34:28;;;;;;;4.30;3.87;;;;;;;;;;5022193;28;20414;-82
2022/04/27 14:36:54;;;;;;;3.73;3.07;;;;;;;;;;5022053;28;20581;-81
2022/04/27 14:39:20;;;;;;;3.40;2.90;;;;;;;;;;5040800;28;20843;-81
2022/04/27 14:41:46;;;;;;;3.37;2.87;;;;;;;;;;5043852;28;20406;-81
2022/04/27 14:44:12;;;;;;;5.00;3.23;;;;;;;;;;5044197;28;20864;-81
2022/04/27 14:46:39;;;;;;;3.83;2.90;;;;;;;;;;5043319;28;20434;-81
2022/04/27 14:49:05;;;;;;;3.73;2.73;;;;;;;;;;5042148;28;20468;-80
2022/04/27 14:51:31;;;;;;;3.60;2.53;;;;;;;;;;5041743;28;20433;-80
2022/04/27 14:53:57;;;;;;;2.40;2.17;;;;;;;;;;5041485;28;20449;-81
2022/04/27 14:56:23;;;;;;;4.70;2.17;;;;;;;;;;5040190;28;20457;-80
2022/04/27 14:58:49;;;;;;;3.20;2.30;;;;;;;;;;5021395;28;20433;-81
2022/04/27 15:01:16;;;;;;;6.20;2.43;;;;;;;;;;5025759;28;20414;-81
2022/04/27 15:03:42;;;;;;;4.00;2.50;;;;;;;;;;5041264;28;20418;-80